createdAt,value
2017-11-24T00:02:05.250Z,8.90
2017-11-24T00:04:32.929Z,6.33
2017-11-24T00:07:00.418Z,8.27
2017-11-24T00:09:27.914Z,8.33
2017-11-24T00:11:55.407Z,7.47
2017-11-24T00:14:23.676Z,6.47
2017-11-24T00:16:51.161Z,6.20
2017-11-24T00:19:18.696Z,8.87
2017-11-24T00:21:46.176Z,6.57
2017-11-24T00:24:14.424Z,7.17
2017-11-24T00:26:41.908Z,7.10
2017-11-24T00:29:10.147Z,7.37
2017-11-24T00:31:37.633Z,7.67
2017-11-24T00:34:05.130Z,11.33
2017-11-24T00:36:32.631Z,15.83
2017-11-24T00:39:00.145Z,11.77
2017-11-24T00:41:27.634Z,12.30
2017-11-24T00:43:55.116Z,9.07
2017-11-24T00:46:23.393Z,9.40
2017-11-24T00:48:51.646Z,9.50
2017-11-24T00:51:19.124Z,8.50
2017-11-24T00:53:48.305Z,8.37
2017-11-24T00:56:15.785Z,7.60
2017-11-24T00:58:44.048Z,9.40
2017-11-24T01:01:11.528Z,8.63
2017-11-24T01:03:39.769Z,8.63
2017-11-24T01:06:07.262Z,7.97
2017-11-24T01:08:35.500Z,11.50
2017-11-24T01:11:02.994Z,8.00
2017-11-24T01:13:31.236Z,9.53
2017-11-24T01:15:58.723Z,10.20
2017-11-24T01:18:26.974Z,9.33
2017-11-24T01:20:54.455Z,8.93
2017-11-24T01:23:22.696Z,7.70
2017-11-24T01:25:50.219Z,8.93
2017-11-24T01:28:17.693Z,9.30
2017-11-24T01:30:45.180Z,10.90
2017-11-24T01:33:12.655Z,9.03
2017-11-24T01:35:40.901Z,9.80
2017-11-24T01:38:08.389Z,9.43
2017-11-24T01:40:36.673Z,10.53
2017-11-24T01:43:04.182Z,8.63
2017-11-24T01:45:31.668Z,10.73
2017-11-24T01:47:59.153Z,9.57
2017-11-24T01:50:26.632Z,8.97
2017-11-24T01:52:54.144Z,10.80
2017-11-24T01:55:21.648Z,10.37
2017-11-24T01:57:49.164Z,10.80
2017-11-24T02:00:16.649Z,9.17
2017-11-24T02:02:44.121Z,8.33
2017-11-24T02:05:11.622Z,8.97
2017-11-24T02:07:39.109Z,10.13
2017-11-24T02:10:07.349Z,9.73
2017-11-24T02:12:34.877Z,9.47
2017-11-24T02:15:02.352Z,10.10
2017-11-24T02:17:29.893Z,9.60
2017-11-24T02:19:57.369Z,12.67
2017-11-24T02:22:24.878Z,11.37
2017-11-24T02:24:53.174Z,11.23
2017-11-24T02:27:21.411Z,10.17
2017-11-24T02:29:49.445Z,12.33
2017-11-24T02:32:16.926Z,10.80
2017-11-24T02:34:44.425Z,12.63
2017-11-24T02:37:11.900Z,12.93
2017-11-24T02:39:39.426Z,12.13
2017-11-24T02:42:07.685Z,13.60
2017-11-24T02:44:35.209Z,12.03
2017-11-24T02:47:02.713Z,14.60
2017-11-24T02:49:30.988Z,14.27
2017-11-24T02:51:59.254Z,13.00
2017-11-24T02:54:26.740Z,13.47
2017-11-24T02:56:55.065Z,13.67
2017-11-24T02:59:22.557Z,12.53
2017-11-24T03:01:50.838Z,14.83
2017-11-24T03:04:19.090Z,13.53
2017-11-24T03:06:46.570Z,12.03
2017-11-24T03:09:14.883Z,14.13
2017-11-24T03:11:42.361Z,13.53
2017-11-24T03:14:09.849Z,12.13
2017-11-24T03:16:37.332Z,11.73
2017-11-24T03:19:05.603Z,13.80
2017-11-24T03:21:33.849Z,15.07
2017-11-24T03:24:01.341Z,14.37
2017-11-24T03:26:29.609Z,12.30
2017-11-24T03:28:57.111Z,13.30
2017-11-24T03:31:24.598Z,13.67
2017-11-24T03:33:52.090Z,13.70
2017-11-24T03:36:20.350Z,11.43
2017-11-24T03:38:47.828Z,12.77
2017-11-24T03:41:15.354Z,13.67
2017-11-24T03:43:42.836Z,13.33
2017-11-24T03:46:11.084Z,12.43
2017-11-24T03:48:38.578Z,13.90
2017-11-24T03:51:06.830Z,14.17
2017-11-24T03:53:34.326Z,13.20
2017-11-24T03:56:01.822Z,14.73
2017-11-24T03:58:29.316Z,12.50
2017-11-24T04:00:57.567Z,14.53
2017-11-24T04:03:25.065Z,14.13
2017-11-24T04:05:52.559Z,15.57
2017-11-24T04:08:20.040Z,15.03
2017-11-24T04:10:47.539Z,14.90
2017-11-24T04:13:15.032Z,13.90
2017-11-24T04:15:42.538Z,16.17
2017-11-24T04:18:10.800Z,13.77
2017-11-24T04:20:38.293Z,15.57
2017-11-24T04:23:05.789Z,13.70
2017-11-24T04:25:34.090Z,13.70
2017-11-24T04:28:01.613Z,13.50
2017-11-24T04:30:29.111Z,14.57
2017-11-24T04:32:56.595Z,15.23
2017-11-24T04:35:29.465Z,14.30
2017-11-24T04:37:57.720Z,16.57
2017-11-24T04:40:25.200Z,14.30
2017-11-24T04:42:53.507Z,14.07
2017-11-24T04:45:20.988Z,14.07
2017-11-24T04:47:48.524Z,14.30
2017-11-24T04:50:16.019Z,15.33
2017-11-24T04:52:43.500Z,15.97
2017-11-24T04:55:11.773Z,15.27
2017-11-24T04:57:39.288Z,15.70
2017-11-24T05:00:06.783Z,15.57
2017-11-24T05:02:35.048Z,16.47
2017-11-24T05:05:02.545Z,16.33
2017-11-24T05:07:31.477Z,15.40
2017-11-24T05:09:58.970Z,15.43
2017-11-24T05:12:26.461Z,16.17
2017-11-24T05:14:53.940Z,17.87
2017-11-24T05:17:21.436Z,16.90
2017-11-24T05:19:48.911Z,17.53
2017-11-24T05:22:17.174Z,17.37
2017-11-24T05:24:44.660Z,15.20
2017-11-24T05:27:12.169Z,15.40
2017-11-24T05:29:40.372Z,18.83
2017-11-24T05:32:08.676Z,17.50
2017-11-24T05:34:36.172Z,15.87
2017-11-24T05:37:03.693Z,19.17
2017-11-24T05:39:31.203Z,16.80
2017-11-24T05:41:58.689Z,17.37
2017-11-24T05:44:26.955Z,15.60
2017-11-24T05:46:54.440Z,15.43
2017-11-24T05:49:21.940Z,16.67
2017-11-24T05:51:49.431Z,17.57
2017-11-24T05:54:17.680Z,14.60
2017-11-24T05:56:45.164Z,16.17
2017-11-24T05:59:13.415Z,16.83
2017-11-24T06:01:41.804Z,15.97
2017-11-24T06:04:09.366Z,15.97
2017-11-24T06:06:36.860Z,17.07
2017-11-24T06:09:04.340Z,17.77
2017-11-24T06:11:31.829Z,17.00
2017-11-24T06:14:00.297Z,17.47
2017-11-24T06:16:27.790Z,15.03
2017-11-24T06:18:56.050Z,15.93
2017-11-24T06:21:23.562Z,16.90
2017-11-24T06:23:51.057Z,17.27
2017-11-24T06:26:18.538Z,15.37
2017-11-24T06:28:46.034Z,18.33
2017-11-24T06:31:13.555Z,15.43
2017-11-24T06:33:41.060Z,17.47
2017-11-24T06:36:08.556Z,15.40
2017-11-24T06:38:36.112Z,16.57
2017-11-24T06:41:03.622Z,17.20
2017-11-24T06:43:31.122Z,17.60
2017-11-24T06:45:58.617Z,17.70
2017-11-24T06:48:26.860Z,17.63
2017-11-24T06:50:54.347Z,18.53
2017-11-24T06:53:22.596Z,16.53
2017-11-24T06:55:50.109Z,16.33
2017-11-24T06:58:17.694Z,15.73
2017-11-24T07:00:46.129Z,16.50
2017-11-24T07:03:14.400Z,17.93
2017-11-24T07:05:42.655Z,16.73
2017-11-24T07:08:10.177Z,16.43
2017-11-24T07:10:37.670Z,16.73
2017-11-24T07:13:05.150Z,16.77
2017-11-24T07:15:33.492Z,15.47
2017-11-24T07:18:00.985Z,16.00
2017-11-24T07:20:29.253Z,16.00
2017-11-24T07:22:57.505Z,15.27
2017-11-24T07:25:24.994Z,17.53
2017-11-24T07:27:53.244Z,17.03
2017-11-24T07:30:20.763Z,15.73
2017-11-24T07:32:48.253Z,15.53
2017-11-24T07:35:15.746Z,17.63
2017-11-24T07:37:44.009Z,16.37
2017-11-24T07:40:11.491Z,17.80
2017-11-24T07:42:39.741Z,15.93
2017-11-24T07:45:07.228Z,17.67
2017-11-24T07:47:34.737Z,14.63
2017-11-24T07:50:02.226Z,16.07
2017-11-24T07:52:30.472Z,16.90
2017-11-24T07:54:57.969Z,17.17
2017-11-24T07:57:26.286Z,16.47
2017-11-24T07:59:53.789Z,18.30
2017-11-24T08:02:22.041Z,14.17
2017-11-24T08:04:49.526Z,14.13
2017-11-24T08:07:17.812Z,13.53
2017-11-24T08:09:46.077Z,14.00
2017-11-24T08:12:14.368Z,14.50
2017-11-24T08:14:42.629Z,13.83
2017-11-24T08:17:10.932Z,13.70
2017-11-24T08:19:38.413Z,15.90
2017-11-24T08:22:05.933Z,14.87
2017-11-24T08:24:34.176Z,13.50
2017-11-24T08:27:01.693Z,14.57
2017-11-24T08:29:29.219Z,14.40
2017-11-24T08:31:58.429Z,13.13
2017-11-24T08:34:26.672Z,13.67
2017-11-24T08:36:54.251Z,14.70
2017-11-24T08:39:22.500Z,14.30
2017-11-24T08:41:50.093Z,21.67
2017-11-24T08:44:18.342Z,14.80
2017-11-24T08:46:51.664Z,13.33
2017-11-24T08:49:25.755Z,12.07
2017-11-24T08:51:54.053Z,15.17
2017-11-24T08:54:22.312Z,11.87
2017-11-24T08:56:50.570Z,13.13
2017-11-24T08:59:18.162Z,13.20
2017-11-24T09:01:46.438Z,14.07
2017-11-24T09:04:14.717Z,11.27
2017-11-24T09:06:42.975Z,11.33
2017-11-24T09:09:10.475Z,11.50
2017-11-24T09:11:37.953Z,10.97
2017-11-24T09:14:05.474Z,10.70
2017-11-24T09:16:32.958Z,12.73
2017-11-24T09:19:00.441Z,11.03
2017-11-24T09:21:28.046Z,12.63
2017-11-24T09:23:56.314Z,10.77
2017-11-24T09:26:24.577Z,10.73
2017-11-24T09:28:52.077Z,10.97
2017-11-24T09:31:19.568Z,11.53
2017-11-24T09:33:47.158Z,11.67
2017-11-24T09:36:15.430Z,10.67
2017-11-24T09:38:43.010Z,14.30
2017-11-24T09:41:11.285Z,13.63
2017-11-24T09:43:39.582Z,11.10
2017-11-24T09:46:07.152Z,11.70
2017-11-24T09:48:34.689Z,10.80
2017-11-24T09:51:02.206Z,11.37
2017-11-24T09:53:29.795Z,9.73
2017-11-24T09:55:58.052Z,10.40
2017-11-24T09:58:25.551Z,12.13
2017-11-24T10:00:53.076Z,11.17
2017-11-24T10:03:21.102Z,9.40
2017-11-24T10:05:48.647Z,10.33
2017-11-24T10:08:16.189Z,11.77
2017-11-24T10:10:43.696Z,15.13
2017-11-24T10:13:11.181Z,10.43
2017-11-24T10:15:39.448Z,12.30
2017-11-24T10:18:08.432Z,10.63
2017-11-24T10:20:41.595Z,9.40
2017-11-24T10:23:09.104Z,10.07
2017-11-24T10:25:37.373Z,10.63
2017-11-24T10:28:04.975Z,11.30
2017-11-24T10:30:32.501Z,10.27
2017-11-24T10:33:00.757Z,14.63
2017-11-24T10:35:28.334Z,15.23
2017-11-24T10:37:56.666Z,16.80
2017-11-24T10:40:24.153Z,11.53
2017-11-24T10:42:51.765Z,10.73
2017-11-24T10:45:19.253Z,11.70
2017-11-24T10:47:46.860Z,10.03
2017-11-24T10:50:14.377Z,14.50
2017-11-24T10:52:41.872Z,10.90
2017-11-24T10:55:09.384Z,10.47
2017-11-24T10:57:36.940Z,9.53
2017-11-24T11:00:05.457Z,10.63
2017-11-24T11:02:33.033Z,8.90
2017-11-24T11:05:01.282Z,10.83
2017-11-24T11:07:28.794Z,9.83
2017-11-24T11:09:56.351Z,10.67
2017-11-24T11:12:23.836Z,9.90
2017-11-24T11:14:51.319Z,13.00
2017-11-24T11:17:18.801Z,9.13
2017-11-24T11:19:47.073Z,10.53
2017-11-24T11:22:15.335Z,10.47
2017-11-24T11:24:43.598Z,9.80
2017-11-24T11:27:11.105Z,7.90
2017-11-24T11:29:38.581Z,9.60
2017-11-24T11:32:06.073Z,8.20
2017-11-24T11:34:34.387Z,8.07
2017-11-24T11:37:01.914Z,8.97
2017-11-24T11:39:29.433Z,10.47
2017-11-24T11:41:56.954Z,9.17
2017-11-24T11:44:24.449Z,8.97
2017-11-24T11:46:51.967Z,7.97
2017-11-24T11:49:20.277Z,10.37
2017-11-24T11:51:47.802Z,8.63
2017-11-24T11:54:16.050Z,9.87
2017-11-24T11:56:43.637Z,8.97
2017-11-24T11:59:11.915Z,8.40
2017-11-24T12:01:40.174Z,7.17
2017-11-24T12:04:08.469Z,8.63
2017-11-24T12:06:36.724Z,8.73
2017-11-24T12:09:04.214Z,8.90
2017-11-24T12:11:31.774Z,8.20
2017-11-24T12:13:59.271Z,11.17
2017-11-24T12:16:26.748Z,9.23
2017-11-24T12:18:54.242Z,10.27
2017-11-24T12:21:22.515Z,8.83
2017-11-24T12:23:50.782Z,9.70
2017-11-24T12:26:19.067Z,9.27
2017-11-24T12:28:47.333Z,8.53
2017-11-24T12:31:15.625Z,7.90
2017-11-24T12:33:43.114Z,11.53
2017-11-24T12:36:10.633Z,9.57
2017-11-24T12:38:39.058Z,9.77
2017-11-24T12:41:06.611Z,8.97
2017-11-24T12:43:34.125Z,8.73
2017-11-24T12:46:02.401Z,9.77
2017-11-24T12:48:30.679Z,11.10
2017-11-24T12:50:58.953Z,9.67
2017-11-24T12:53:26.453Z,12.00
2017-11-24T12:55:53.941Z,8.83
2017-11-24T12:58:21.529Z,10.43
2017-11-24T13:00:49.785Z,12.87
2017-11-24T13:03:17.280Z,9.43
2017-11-24T13:05:44.858Z,9.53
2017-11-24T13:08:12.377Z,10.07
2017-11-24T13:10:40.627Z,10.27
2017-11-24T13:13:08.569Z,13.27
2017-11-24T13:15:36.068Z,12.50
2017-11-24T13:18:03.566Z,13.83
2017-11-24T13:20:31.193Z,13.57
2017-11-24T13:22:59.513Z,11.93
2017-11-24T13:25:27.104Z,11.47
2017-11-24T13:27:54.598Z,12.13
2017-11-24T13:30:22.857Z,11.57
2017-11-24T13:32:50.352Z,11.10
2017-11-24T13:35:17.901Z,14.27
2017-11-24T13:37:46.172Z,12.73
2017-11-24T13:40:14.478Z,12.93
2017-11-24T13:42:42.012Z,10.33
2017-11-24T13:45:10.274Z,12.57
2017-11-24T13:47:38.570Z,12.07
2017-11-24T13:50:06.116Z,12.27
2017-11-24T13:52:34.537Z,9.23
2017-11-24T13:55:02.054Z,10.37
2017-11-24T13:57:30.332Z,11.93
2017-11-24T13:59:58.631Z,11.33
2017-11-24T14:02:26.176Z,11.70
2017-11-24T14:04:54.476Z,10.60
2017-11-24T14:07:22.005Z,12.27
2017-11-24T14:09:50.281Z,10.73
2017-11-24T14:12:18.551Z,15.27
2017-11-24T14:14:46.966Z,12.73
2017-11-24T14:17:14.504Z,11.23
2017-11-24T14:19:42.781Z,12.70
2017-11-24T14:22:10.390Z,11.67
2017-11-24T14:24:37.904Z,12.00
2017-11-24T14:27:05.618Z,9.27
2017-11-24T14:29:33.095Z,12.93
2017-11-24T14:32:00.605Z,12.40
2017-11-24T14:34:28.095Z,11.10
2017-11-24T14:36:55.600Z,11.83
2017-11-24T14:39:23.165Z,13.03
2017-11-24T14:41:50.664Z,11.60
2017-11-24T14:44:18.175Z,11.73
2017-11-24T14:46:45.665Z,11.07
2017-11-24T14:49:13.173Z,10.20
2017-11-24T14:51:41.423Z,11.23
2017-11-24T14:54:08.939Z,10.40
2017-11-24T14:56:36.515Z,12.27
2017-11-24T14:59:04.039Z,11.63
2017-11-24T15:01:31.529Z,12.17
2017-11-24T15:03:59.060Z,11.17
2017-11-24T15:06:26.547Z,11.60
2017-11-24T15:08:54.061Z,23.40
2017-11-24T15:11:22.355Z,10.77
2017-11-24T15:13:49.842Z,14.57
2017-11-24T15:16:17.320Z,12.87
2017-11-24T15:18:44.913Z,12.20
2017-11-24T15:21:13.204Z,10.30
2017-11-24T15:23:40.711Z,10.80
2017-11-24T15:26:08.197Z,10.97
2017-11-24T15:28:36.458Z,11.37
2017-11-24T15:31:03.957Z,12.17
2017-11-24T15:33:31.447Z,12.37
2017-11-24T15:35:58.952Z,11.87
2017-11-24T15:38:27.202Z,14.03
2017-11-24T15:40:54.700Z,13.67
2017-11-24T15:43:22.944Z,10.60
2017-11-24T15:45:50.475Z,12.80
2017-11-24T15:48:17.977Z,13.50
2017-11-24T15:50:46.237Z,13.17
2017-11-24T15:53:13.731Z,16.50
2017-11-24T15:55:41.226Z,21.70
2017-11-24T15:58:09.498Z,19.00
2017-11-24T16:00:37.038Z,14.67
2017-11-24T16:03:04.542Z,14.40
2017-11-24T16:05:32.033Z,11.53
2017-11-24T16:07:59.593Z,12.30
2017-11-24T16:10:27.859Z,13.80
2017-11-24T16:12:56.146Z,15.53
2017-11-24T16:15:23.660Z,14.77
2017-11-24T16:17:51.185Z,13.03
2017-11-24T16:20:18.713Z,13.30
2017-11-24T16:22:46.986Z,14.33
2017-11-24T16:25:15.256Z,13.03
2017-11-24T16:27:43.585Z,14.53
2017-11-24T16:30:11.090Z,21.43
2017-11-24T16:32:38.581Z,14.20
2017-11-24T16:35:06.098Z,14.07
2017-11-24T16:37:33.603Z,13.53
2017-11-24T16:40:01.682Z,11.83
2017-11-24T16:42:29.237Z,12.87
2017-11-24T16:44:56.770Z,11.57
2017-11-24T16:47:24.298Z,11.67
2017-11-24T16:49:51.797Z,10.00
2017-11-24T16:52:19.356Z,12.53
2017-11-24T16:54:47.630Z,11.53
2017-11-24T16:57:15.118Z,12.73
2017-11-24T16:59:42.639Z,13.73
2017-11-24T17:02:11.049Z,10.23
2017-11-24T17:04:38.537Z,7.93
2017-11-24T17:07:06.044Z,7.20
2017-11-24T17:09:33.616Z,4.87
2017-11-24T17:12:01.116Z,2.60
2017-11-24T17:14:28.592Z,2.57
2017-11-24T17:16:56.185Z,2.60
2017-11-24T17:19:23.680Z,2.37
2017-11-24T17:21:51.189Z,2.33
2017-11-24T17:24:19.437Z,2.00
2017-11-24T17:26:46.913Z,3.20
2017-11-24T17:29:15.157Z,2.70
2017-11-24T17:31:42.750Z,2.33
2017-11-24T17:34:10.998Z,2.20
2017-11-24T17:36:38.482Z,7.00
2017-11-24T17:39:05.979Z,2.47
2017-11-24T17:41:33.465Z,2.50
2017-11-24T17:44:00.938Z,10.63
2017-11-24T17:46:28.521Z,2.70
2017-11-24T17:48:56.774Z,2.73
2017-11-24T17:51:25.772Z,3.73
2017-11-24T17:53:53.255Z,3.67
2017-11-24T17:56:20.740Z,3.87
2017-11-24T17:58:48.235Z,2.27
2017-11-24T18:01:15.746Z,2.70
2017-11-24T18:03:43.233Z,3.20
2017-11-24T18:06:10.718Z,3.00
2017-11-24T18:08:38.214Z,5.10
2017-11-24T18:11:05.722Z,6.87
2017-11-24T18:13:33.225Z,5.27
2017-11-24T18:16:00.709Z,5.57
2017-11-24T18:18:28.215Z,2.90
2017-11-24T18:20:56.463Z,3.37
2017-11-24T18:23:24.493Z,2.37
2017-11-24T18:25:51.986Z,2.50
2017-11-24T18:28:19.469Z,2.10
2017-11-24T18:30:46.952Z,2.20
2017-11-24T18:33:15.199Z,4.37
2017-11-24T18:35:42.688Z,4.27
2017-11-24T18:38:10.177Z,3.30
2017-11-24T18:40:37.684Z,3.57
2017-11-24T18:43:05.933Z,3.23
2017-11-24T18:45:34.248Z,2.70
2017-11-24T18:48:02.492Z,3.37
2017-11-24T18:50:30.017Z,11.50
2017-11-24T18:52:57.507Z,7.97
2017-11-24T18:55:24.981Z,5.10
2017-11-24T18:57:52.484Z,3.80
2017-11-24T19:00:19.965Z,3.57
2017-11-24T19:02:47.464Z,3.43
2017-11-24T19:05:15.734Z,3.60
2017-11-24T19:07:43.996Z,4.00
2017-11-24T19:10:11.608Z,4.53
2017-11-24T19:12:39.140Z,6.13
2017-11-24T19:15:07.434Z,4.73
2017-11-24T19:17:34.932Z,6.43
2017-11-24T19:20:03.440Z,5.90
2017-11-24T19:22:31.129Z,5.23
2017-11-24T19:24:58.637Z,4.97
2017-11-24T19:27:26.125Z,6.03
2017-11-24T19:29:55.763Z,6.93
2017-11-24T19:32:23.401Z,8.73
2017-11-24T19:34:51.854Z,10.33
2017-11-24T19:37:19.353Z,6.90
2017-11-24T19:39:47.664Z,6.27
2017-11-24T19:42:15.140Z,6.10
2017-11-24T19:44:42.643Z,5.93
2017-11-24T19:47:10.905Z,10.07
2017-11-24T19:49:39.197Z,4.83
2017-11-24T19:52:06.742Z,4.27
2017-11-24T19:54:35.016Z,4.40
2017-11-24T19:57:03.253Z,4.30
2017-11-24T19:59:30.860Z,4.30
2017-11-24T20:01:59.096Z,4.90
2017-11-24T20:04:26.653Z,5.70
2017-11-24T20:06:54.152Z,6.00
2017-11-24T20:09:22.397Z,5.80
2017-11-24T20:11:49.885Z,5.90
2017-11-24T20:14:17.397Z,5.57
2017-11-24T20:16:44.973Z,6.23
2017-11-24T20:19:12.537Z,5.10
2017-11-24T20:21:40.069Z,4.90
2017-11-24T20:24:07.550Z,4.10
2017-11-24T20:26:35.036Z,4.10
2017-11-24T20:29:03.293Z,4.20
2017-11-24T20:31:30.864Z,4.20
2017-11-24T20:33:59.254Z,4.97
2017-11-24T20:36:27.497Z,4.50
2017-11-24T20:38:55.047Z,5.07
2017-11-24T20:41:22.687Z,4.40
2017-11-24T20:43:51.009Z,3.70
2017-11-24T20:46:18.552Z,3.93
2017-11-24T20:48:46.040Z,3.23
2017-11-24T20:51:14.346Z,4.03
2017-11-24T20:53:41.879Z,4.47
2017-11-24T20:56:10.170Z,3.90
2017-11-24T20:58:37.677Z,4.33
2017-11-24T21:01:05.186Z,3.73
2017-11-24T21:03:32.674Z,3.50
2017-11-24T21:06:00.820Z,3.90
2017-11-24T21:08:28.309Z,3.60
2017-11-24T21:10:55.820Z,4.13
2017-11-24T21:13:24.355Z,3.70
2017-11-24T21:15:51.842Z,4.13
2017-11-24T21:18:20.996Z,4.37
2017-11-24T21:20:48.541Z,4.70
2017-11-24T21:23:16.019Z,4.77
2017-11-24T21:25:43.533Z,4.33
2017-11-24T21:28:11.090Z,4.23
2017-11-24T21:30:38.574Z,3.80
2017-11-24T21:33:06.069Z,3.97
2017-11-24T21:35:33.561Z,4.20
2017-11-24T21:38:01.058Z,3.90
2017-11-24T21:40:28.561Z,4.20
2017-11-24T21:42:56.041Z,4.60
2017-11-24T21:45:25.021Z,7.40
2017-11-24T21:47:53.265Z,7.07
2017-11-24T21:50:20.758Z,6.50
2017-11-24T21:52:49.039Z,5.57
2017-11-24T21:55:17.282Z,4.90
2017-11-24T21:57:44.786Z,5.50
2017-11-24T22:00:12.268Z,4.57
2017-11-24T22:02:39.759Z,4.77
2017-11-24T22:05:07.249Z,4.00
2017-11-24T22:07:35.535Z,4.87
2017-11-24T22:10:03.010Z,5.17
2017-11-24T22:12:30.499Z,5.33
2017-11-24T22:14:58.020Z,5.67
2017-11-24T22:17:25.534Z,5.97
2017-11-24T22:19:53.064Z,16.63
2017-11-24T22:22:20.550Z,8.47
2017-11-24T22:24:48.042Z,6.13
2017-11-24T22:27:15.561Z,8.97
2017-11-24T22:29:43.098Z,8.47
2017-11-24T22:32:11.457Z,8.87
2017-11-24T22:34:38.963Z,12.03
2017-11-24T22:37:07.232Z,10.73
2017-11-24T22:39:34.734Z,10.40
2017-11-24T22:42:03.235Z,11.30
2017-11-24T22:44:30.726Z,10.87
2017-11-24T22:46:58.227Z,10.10
2017-11-24T22:49:25.708Z,10.27
2017-11-24T22:51:53.200Z,9.83
2017-11-24T22:54:20.676Z,8.63
2017-11-24T22:56:48.940Z,9.80
2017-11-24T22:59:16.977Z,9.60
2017-11-24T23:01:44.455Z,10.90
2017-11-24T23:04:12.006Z,20.00
2017-11-24T23:06:39.529Z,10.57
2017-11-24T23:09:07.024Z,10.57
2017-11-24T23:11:34.497Z,8.90
2017-11-24T23:14:01.993Z,9.67
2017-11-24T23:16:29.475Z,9.57
2017-11-24T23:18:56.960Z,10.50
2017-11-24T23:21:24.481Z,9.97
2017-11-24T23:23:52.754Z,9.60
2017-11-24T23:26:20.237Z,9.63
2017-11-24T23:28:47.777Z,8.97
2017-11-24T23:31:15.312Z,7.83
2017-11-24T23:33:42.794Z,9.33
2017-11-24T23:36:10.290Z,7.53
2017-11-24T23:38:37.776Z,8.57
2017-11-24T23:41:07.227Z,7.97
2017-11-24T23:43:34.730Z,8.70
2017-11-24T23:46:02.236Z,7.47
2017-11-24T23:48:29.721Z,7.17
2017-11-24T23:50:57.205Z,6.50
2017-11-24T23:53:25.479Z,7.20
2017-11-24T23:55:53.719Z,6.00
2017-11-24T23:58:21.192Z,6.60
